createdAt,value
2023-04-03T00:01:59.800Z,34.54
2023-04-03T00:04:27.795Z,34.72
2023-04-03T00:06:55.851Z,34.94
2023-04-03T00:09:24.014Z,35.37
2023-04-03T00:11:52.304Z,34.60
2023-04-03T00:14:20.227Z,33.65
2023-04-03T00:16:48.555Z,34.69
2023-04-03T00:19:16.690Z,34.84
2023-04-03T00:21:45.981Z,35.05
2023-04-03T00:24:13.801Z,34.78
2023-04-03T00:26:41.733Z,34.35
2023-04-03T00:29:09.620Z,34.23
2023-04-03T00:31:39.856Z,34.71
2023-04-03T00:34:07.845Z,34.44
2023-04-03T00:36:36.157Z,34.95
2023-04-03T00:39:05.330Z,35.04
2023-04-03T00:41:33.459Z,34.93
2023-04-03T00:44:01.539Z,34.51
2023-04-03T00:46:29.517Z,34.35
2023-04-03T00:48:57.553Z,35.14
2023-04-03T00:51:25.528Z,35.27
2023-04-03T00:53:53.426Z,35.29
2023-04-03T00:56:22.824Z,34.66
2023-04-03T00:58:50.841Z,35.08
2023-04-03T01:01:18.852Z,34.84
2023-04-03T01:03:46.910Z,34.87
2023-04-03T01:06:15.125Z,34.73
2023-04-03T01:08:43.153Z,35.21
2023-04-03T01:11:11.079Z,34.71
2023-04-03T01:13:39.373Z,35.32
2023-04-03T01:16:07.436Z,34.51
2023-04-03T01:18:35.583Z,34.86
2023-04-03T01:21:03.545Z,34.62
2023-04-03T01:23:31.504Z,34.71
2023-04-03T01:25:59.500Z,35.59
2023-04-03T01:28:27.444Z,34.11
2023-04-03T01:30:55.383Z,35.17
2023-04-03T01:33:23.332Z,34.41
2023-04-03T01:35:51.333Z,35.88
2023-04-03T01:38:19.529Z,35.39
2023-04-03T01:40:47.475Z,34.41
2023-04-03T01:43:15.530Z,34.71
2023-04-03T01:45:43.526Z,34.87
2023-04-03T01:48:11.457Z,34.93
2023-04-03T01:50:39.469Z,35.07
2023-04-03T01:53:07.490Z,35.59
2023-04-03T01:55:35.435Z,34.78
2023-04-03T01:58:03.405Z,35.09
2023-04-03T02:00:31.913Z,34.86
2023-04-03T02:03:00.110Z,34.81
2023-04-03T02:05:28.241Z,34.87
2023-04-03T02:07:58.949Z,34.94
2023-04-03T02:10:26.863Z,35.40
2023-04-03T02:12:54.757Z,35.01
2023-04-03T02:15:22.767Z,34.90
2023-04-03T02:17:50.632Z,35.33
2023-04-03T02:20:18.516Z,34.43
2023-04-03T02:22:46.461Z,35.49
2023-04-03T02:25:14.833Z,35.24
2023-04-03T02:27:42.837Z,34.91
2023-04-03T02:30:12.003Z,35.23
2023-04-03T02:32:40.188Z,34.41
2023-04-03T02:35:08.253Z,35.50
2023-04-03T02:37:36.186Z,35.19
2023-04-03T02:40:04.114Z,35.47
2023-04-03T02:42:32.190Z,35.23
2023-04-03T02:45:01.471Z,35.16
2023-04-03T02:47:29.380Z,35.35
2023-04-03T02:49:57.469Z,35.10
2023-04-03T02:52:25.486Z,35.38
2023-04-03T02:54:53.557Z,35.19
2023-04-03T02:57:22.141Z,35.52
2023-04-03T02:59:50.171Z,35.29
2023-04-03T03:02:18.381Z,35.52
2023-04-03T03:04:46.484Z,35.07
2023-04-03T03:07:14.428Z,35.38
2023-04-03T03:09:42.411Z,35.41
2023-04-03T03:12:10.382Z,35.20
2023-04-03T03:14:38.360Z,35.26
2023-04-03T03:17:06.353Z,35.08
2023-04-03T03:19:34.305Z,34.83
2023-04-03T03:22:06.293Z,35.58
2023-04-03T03:24:34.134Z,35.33
2023-04-03T03:27:01.958Z,36.11
2023-04-03T03:29:29.812Z,35.56
2023-04-03T03:31:57.596Z,35.20
2023-04-03T03:34:25.466Z,35.24
2023-04-03T03:36:53.396Z,34.68
2023-04-03T03:39:21.543Z,35.73
2023-04-03T03:41:50.678Z,35.31
2023-04-03T03:44:18.616Z,35.41
2023-04-03T03:46:46.419Z,36.10
2023-04-03T03:49:14.282Z,35.29
2023-04-03T03:51:42.160Z,36.10
2023-04-03T03:54:10.040Z,35.47
2023-04-03T03:56:37.908Z,35.12
2023-04-03T03:59:05.646Z,35.06
2023-04-03T04:01:33.560Z,35.63
2023-04-03T04:04:01.636Z,35.95
2023-04-03T04:06:29.590Z,35.93
2023-04-03T04:08:57.451Z,35.79
2023-04-03T04:11:25.972Z,35.58
2023-04-03T04:13:53.817Z,35.52
2023-04-03T04:16:21.631Z,35.91
2023-04-03T04:18:49.500Z,35.16
2023-04-03T04:21:17.406Z,36.11
2023-04-03T04:23:45.173Z,35.87
2023-04-03T04:26:13.101Z,36.46
2023-04-03T04:28:40.982Z,36.11
2023-04-03T04:31:09.099Z,36.03
2023-04-03T04:33:36.944Z,35.78
2023-04-03T04:36:04.746Z,35.75
2023-04-03T04:38:32.621Z,35.84
2023-04-03T04:41:00.459Z,35.48
2023-04-03T04:43:28.317Z,35.79
2023-04-03T04:45:56.135Z,35.47
2023-04-03T04:48:23.940Z,35.32
2023-04-03T04:50:51.709Z,35.80
2023-04-03T04:53:19.531Z,35.24
2023-04-03T04:55:47.365Z,34.89
2023-04-03T04:58:15.191Z,35.65
2023-04-03T05:00:43.431Z,35.77
2023-04-03T05:03:11.253Z,35.51
2023-04-03T05:05:39.503Z,35.89
2023-04-03T05:08:09.337Z,35.51
2023-04-03T05:10:37.157Z,35.46
2023-04-03T05:13:05.181Z,35.40
2023-04-03T05:15:32.934Z,35.32
2023-04-03T05:18:00.754Z,36.13
2023-04-03T05:20:28.615Z,35.38
2023-04-03T05:22:56.461Z,35.84
2023-04-03T05:25:24.250Z,35.10
2023-04-03T05:27:54.955Z,35.59
2023-04-03T05:30:22.787Z,35.27
2023-04-03T05:32:50.677Z,35.35
2023-04-03T05:35:18.480Z,35.92
2023-04-03T05:37:46.582Z,35.36
2023-04-03T05:40:15.020Z,35.27
2023-04-03T05:42:43.689Z,35.11
2023-04-03T05:45:11.460Z,34.87
2023-04-03T05:47:39.301Z,35.03
2023-04-03T05:50:07.191Z,34.86
2023-04-03T05:52:34.980Z,34.78
2023-04-03T05:55:02.766Z,35.36
2023-04-03T05:57:30.646Z,34.94
2023-04-03T05:59:58.417Z,35.06
2023-04-03T06:02:27.160Z,35.32
2023-04-03T06:04:55.139Z,34.45
2023-04-03T06:07:23.711Z,34.97
2023-04-03T06:09:52.179Z,35.31
2023-04-03T06:12:20.022Z,34.50
2023-04-03T06:14:47.850Z,34.95
2023-04-03T06:17:16.375Z,35.01
2023-04-03T06:19:44.271Z,34.55
2023-04-03T06:22:12.682Z,34.81
2023-04-03T06:24:40.504Z,33.99
2023-04-03T06:27:08.376Z,34.75
2023-04-03T06:29:36.218Z,34.50
2023-04-03T06:32:04.010Z,33.99
2023-04-03T06:34:32.501Z,33.67
2023-04-03T06:37:00.397Z,34.19
2023-04-03T06:39:28.392Z,33.53
2023-04-03T06:41:56.312Z,34.21
2023-04-03T06:44:24.059Z,34.17
2023-04-03T06:46:52.953Z,34.08
2023-04-03T06:49:20.736Z,34.02
2023-04-03T06:51:48.676Z,34.19
2023-04-03T06:54:16.526Z,34.01
2023-04-03T06:56:44.403Z,34.47
2023-04-03T06:59:12.183Z,34.17
2023-04-03T07:01:40.056Z,34.33
2023-04-03T07:04:08.678Z,34.89
2023-04-03T07:06:36.668Z,34.25
2023-04-03T07:09:04.760Z,34.22
2023-04-03T07:11:32.612Z,33.86
2023-04-03T07:14:00.605Z,32.98
2023-04-03T07:16:28.421Z,32.86
2023-04-03T07:18:56.279Z,33.00
2023-04-03T07:21:24.557Z,33.42
2023-04-03T07:23:52.324Z,33.20
2023-04-03T07:26:21.772Z,33.17
2023-04-03T07:28:49.781Z,33.65
2023-04-03T07:31:17.912Z,33.29
2023-04-03T07:33:46.199Z,33.18
2023-04-03T07:36:14.093Z,34.00
2023-04-03T07:38:42.308Z,33.95
2023-04-03T07:41:10.131Z,33.13
2023-04-03T07:43:37.914Z,33.74
2023-04-03T07:46:05.781Z,33.38
2023-04-03T07:48:33.546Z,33.47
2023-04-03T07:51:01.322Z,33.28
2023-04-03T07:53:29.161Z,33.68
2023-04-03T07:55:58.198Z,33.10
2023-04-03T07:58:26.781Z,32.76
2023-04-03T08:00:54.574Z,32.98
2023-04-03T08:03:22.506Z,32.57
2023-04-03T08:05:50.500Z,33.68
2023-04-03T08:08:20.056Z,33.47
2023-04-03T08:10:49.189Z,33.67
2023-04-03T08:13:16.960Z,32.96
2023-04-03T08:15:44.781Z,33.61
2023-04-03T08:18:12.567Z,32.98
2023-04-03T08:20:40.966Z,33.18
2023-04-03T08:23:08.757Z,33.08
2023-04-03T08:25:37.435Z,32.20
2023-04-03T08:28:05.375Z,33.49
2023-04-03T08:30:33.163Z,33.64
2023-04-03T08:33:01.103Z,33.65
2023-04-03T08:35:28.971Z,32.91
2023-04-03T08:37:57.479Z,32.96
2023-04-03T08:40:25.656Z,33.40
2023-04-03T08:42:53.466Z,33.49
2023-04-03T08:45:21.441Z,32.52
2023-04-03T08:47:49.275Z,33.45
2023-04-03T08:50:17.060Z,33.18
2023-04-03T08:52:45.031Z,33.58
2023-04-03T08:55:12.854Z,33.31
2023-04-03T08:57:40.713Z,33.45
2023-04-03T09:00:08.905Z,32.98
2023-04-03T09:02:36.712Z,33.35
2023-04-03T09:05:04.555Z,33.09
2023-04-03T09:07:32.632Z,32.76
2023-04-03T09:10:02.214Z,32.99
2023-04-03T09:12:31.073Z,33.67
2023-04-03T09:14:59.053Z,32.80
2023-04-03T09:17:28.109Z,32.22
2023-04-03T09:19:55.914Z,33.66
2023-04-03T09:22:24.312Z,32.96
2023-04-03T09:24:52.335Z,32.98
2023-04-03T09:27:20.308Z,32.39
2023-04-03T09:29:48.325Z,32.14
2023-04-03T09:32:16.340Z,32.53
2023-04-03T09:34:44.158Z,32.93
2023-04-03T09:37:11.986Z,32.87
2023-04-03T09:39:40.028Z,32.57
2023-04-03T09:42:08.330Z,32.34
2023-04-03T09:44:36.350Z,32.42
2023-04-03T09:47:04.152Z,32.44
2023-04-03T09:49:32.001Z,31.51
2023-04-03T09:51:59.790Z,31.72
2023-04-03T09:54:28.418Z,32.07
2023-04-03T09:56:56.752Z,32.36
2023-04-03T09:59:24.731Z,31.68
2023-04-03T10:01:52.562Z,33.02
2023-04-03T10:04:20.728Z,31.82
2023-04-03T10:06:48.788Z,31.50
2023-04-03T10:09:16.688Z,31.31
2023-04-03T10:11:44.479Z,31.75
2023-04-03T10:14:12.274Z,32.13
2023-04-03T10:16:40.428Z,32.23
2023-04-03T10:19:09.197Z,32.13
2023-04-03T10:21:37.267Z,31.88
2023-04-03T10:24:05.095Z,32.03
2023-04-03T10:26:32.907Z,31.54
2023-04-03T10:29:00.889Z,31.99
2023-04-03T10:31:28.729Z,31.42
2023-04-03T10:33:56.698Z,31.56
2023-04-03T10:36:24.528Z,31.62
2023-04-03T10:38:53.807Z,32.22
2023-04-03T10:41:21.752Z,31.67
2023-04-03T10:43:49.594Z,32.01
2023-04-03T10:46:18.014Z,32.00
2023-04-03T10:48:45.884Z,32.16
2023-04-03T10:51:13.679Z,31.25
2023-04-03T10:53:41.737Z,31.75
2023-04-03T10:56:09.746Z,31.56
2023-04-03T10:58:37.587Z,31.37
2023-04-03T11:01:05.500Z,31.36
2023-04-03T11:03:33.991Z,31.72
2023-04-03T11:06:01.927Z,31.29
2023-04-03T11:08:29.797Z,31.07
2023-04-03T11:10:57.619Z,31.78
2023-04-03T11:13:26.353Z,30.98
2023-04-03T11:15:54.327Z,30.93
2023-04-03T11:18:22.160Z,30.34
2023-04-03T11:20:50.005Z,31.18
2023-04-03T11:23:17.822Z,31.63
2023-04-03T11:25:46.367Z,31.53
2023-04-03T11:28:14.176Z,30.87
2023-04-03T11:30:41.992Z,31.26
2023-04-03T11:33:09.847Z,29.91
2023-04-03T11:35:38.067Z,29.99
2023-04-03T11:38:06.766Z,31.11
2023-04-03T11:40:34.594Z,31.34
2023-04-03T11:43:02.383Z,31.63
2023-04-03T11:45:30.966Z,31.79
2023-04-03T11:47:59.643Z,29.45
2023-04-03T11:50:28.856Z,31.20
2023-04-03T11:52:56.710Z,31.58
2023-04-03T11:55:24.557Z,30.84
2023-04-03T11:57:52.344Z,30.99
2023-04-03T12:00:20.156Z,29.96
2023-04-03T12:02:54.282Z,31.30
2023-04-03T12:05:23.095Z,31.69
2023-04-03T12:07:50.955Z,30.76
2023-04-03T12:10:30.955Z,31.50
2023-04-03T12:13:00.261Z,31.04
2023-04-03T12:15:28.098Z,30.53
2023-04-03T12:17:56.315Z,30.16
2023-04-03T12:20:24.149Z,30.52
2023-04-03T12:22:51.988Z,30.97
2023-04-03T12:25:19.800Z,30.30
2023-04-03T12:27:48.984Z,30.80
2023-04-03T12:30:16.894Z,31.04
2023-04-03T12:32:44.805Z,30.88
2023-04-03T12:35:13.172Z,31.43
2023-04-03T12:37:41.384Z,30.96
2023-04-03T12:40:09.190Z,30.33
2023-04-03T12:42:37.043Z,30.77
2023-04-03T12:45:04.888Z,30.68
2023-04-03T12:47:34.234Z,30.67
2023-04-03T12:50:02.748Z,30.79
2023-04-03T12:52:30.606Z,31.25
2023-04-03T12:54:58.685Z,30.25
2023-04-03T12:57:26.585Z,30.66
2023-04-03T12:59:54.411Z,30.76
2023-04-03T13:02:22.330Z,30.49
2023-04-03T13:04:50.082Z,30.98
2023-04-03T13:07:17.914Z,30.36
2023-04-03T13:09:45.694Z,31.04
2023-04-03T13:12:13.588Z,30.57
2023-04-03T13:14:42.002Z,31.64
2023-04-03T13:17:09.859Z,30.67
2023-04-03T13:19:37.676Z,31.16
2023-04-03T13:22:05.488Z,31.35
2023-04-03T13:24:33.326Z,30.75
2023-04-03T13:27:01.234Z,30.60
2023-04-03T13:29:31.516Z,30.97
2023-04-03T13:31:59.912Z,30.53
2023-04-03T13:34:28.847Z,30.27
2023-04-03T13:36:56.620Z,30.63
2023-04-03T13:39:24.516Z,29.62
2023-04-03T13:41:52.314Z,28.37
2023-04-03T13:44:20.081Z,29.48
2023-04-03T13:46:47.862Z,26.98
2023-04-03T13:49:15.683Z,25.20
2023-04-03T13:51:43.783Z,24.36
2023-04-03T13:54:11.649Z,24.21
2023-04-03T13:56:39.542Z,24.29
2023-04-03T13:59:07.331Z,22.58
2023-04-03T14:01:35.150Z,24.29
2023-04-03T14:04:03.928Z,23.95
2023-04-03T14:06:31.740Z,23.22
2023-04-03T14:08:59.611Z,24.29
2023-04-03T14:11:28.364Z,23.15
2023-04-03T14:13:56.196Z,23.09
2023-04-03T14:16:24.280Z,22.68
2023-04-03T14:18:52.348Z,22.34
2023-04-03T14:21:20.251Z,22.19
2023-04-03T14:23:48.087Z,24.26
2023-04-03T14:26:17.456Z,23.82
2023-04-03T14:28:45.432Z,23.64
2023-04-03T14:31:13.350Z,22.40
2023-04-03T14:33:41.211Z,23.36
2023-04-03T14:36:09.014Z,22.90
2023-04-03T14:38:36.803Z,22.04
2023-04-03T14:41:13.989Z,23.21
2023-04-03T14:43:44.165Z,21.40
2023-04-03T14:46:12.065Z,22.91
2023-04-03T14:48:39.896Z,23.17
2023-04-03T14:51:07.827Z,22.96
2023-04-03T14:53:39.099Z,22.47
2023-04-03T14:56:07.267Z,22.36
2023-04-03T14:58:37.379Z,22.58
2023-04-03T15:01:05.378Z,25.42
2023-04-03T15:03:33.799Z,25.61
2023-04-03T15:06:01.819Z,22.57
2023-04-03T15:08:30.367Z,28.42
2023-04-03T15:10:58.345Z,27.64
2023-04-03T15:13:26.300Z,28.93
2023-04-03T15:15:54.214Z,29.63
2023-04-03T15:18:22.167Z,29.95
2023-04-03T15:20:49.966Z,29.90
2023-04-03T15:23:17.901Z,29.38
2023-04-03T15:25:45.788Z,29.93
2023-04-03T15:28:13.561Z,30.13
2023-04-03T15:30:43.783Z,30.16
2023-04-03T15:33:11.915Z,30.41
2023-04-03T15:35:40.674Z,29.68
2023-04-03T15:38:11.193Z,30.31
2023-04-03T15:40:39.260Z,30.83
2023-04-03T15:43:09.582Z,30.30
2023-04-03T15:45:38.078Z,30.74
2023-04-03T15:48:06.393Z,26.70
2023-04-03T15:50:37.111Z,25.87
2023-04-03T15:53:05.862Z,25.72
2023-04-03T15:55:33.690Z,23.21
2023-04-03T15:58:02.445Z,24.01
2023-04-03T16:00:30.556Z,23.17
2023-04-03T16:02:58.502Z,23.47
2023-04-03T16:05:26.685Z,25.22
2023-04-03T16:07:54.937Z,23.55
2023-04-03T16:10:26.017Z,23.30
2023-04-03T16:12:53.950Z,23.05
2023-04-03T16:15:21.835Z,21.94
2023-04-03T16:17:52.463Z,23.19
2023-04-03T16:20:22.603Z,23.89
2023-04-03T16:22:50.622Z,24.57
2023-04-03T16:25:21.734Z,22.80
2023-04-03T16:27:49.752Z,24.02
2023-04-03T16:30:18.215Z,25.07
2023-04-03T16:32:46.117Z,25.06
2023-04-03T16:35:15.421Z,25.83
2023-04-03T16:37:43.299Z,24.86
2023-04-03T16:40:11.189Z,23.99
2023-04-03T16:42:39.248Z,23.58
2023-04-03T16:45:07.866Z,26.01
2023-04-03T16:47:36.062Z,26.70
2023-04-03T16:50:03.973Z,23.28
2023-04-03T16:52:32.232Z,27.63
2023-04-03T16:55:00.046Z,27.54
2023-04-03T16:57:28.157Z,27.81
2023-04-03T16:59:56.719Z,28.49
2023-04-03T17:02:26.281Z,28.23
2023-04-03T17:04:54.357Z,27.96
2023-04-03T17:07:22.257Z,27.73
2023-04-03T17:09:54.499Z,27.91
2023-04-03T17:12:22.303Z,28.21
2023-04-03T17:14:50.221Z,28.78
2023-04-03T17:17:18.226Z,28.66
2023-04-03T17:19:46.114Z,28.51
2023-04-03T17:22:14.082Z,29.39
2023-04-03T17:24:41.910Z,28.67
2023-04-03T17:27:09.786Z,27.89
2023-04-03T17:29:37.845Z,26.00
2023-04-03T17:32:05.775Z,26.83
2023-04-03T17:34:34.271Z,25.65
2023-04-03T17:37:02.574Z,25.25
2023-04-03T17:39:30.372Z,24.35
2023-04-03T17:41:58.574Z,24.64
2023-04-03T17:44:27.311Z,23.16
2023-04-03T17:46:55.279Z,25.05
2023-04-03T17:49:23.121Z,23.70
2023-04-03T17:51:51.362Z,24.56
2023-04-03T17:54:19.223Z,23.87
2023-04-03T17:56:48.368Z,23.65
2023-04-03T17:59:16.575Z,24.25
2023-04-03T18:01:46.953Z,25.32
2023-04-03T18:04:14.904Z,25.70
2023-04-03T18:06:43.239Z,25.04
2023-04-03T18:09:11.071Z,25.48
2023-04-03T18:11:39.311Z,26.76
2023-04-03T18:14:07.679Z,22.80
2023-04-03T18:16:38.300Z,24.80
2023-04-03T18:19:22.060Z,25.26
2023-04-03T18:21:51.013Z,25.37
2023-04-03T18:24:19.020Z,23.50
2023-04-03T18:26:47.223Z,25.60
2023-04-03T18:29:16.385Z,24.63
2023-04-03T18:31:44.313Z,25.94
2023-04-03T18:34:13.609Z,26.41
2023-04-03T18:36:41.822Z,26.01
2023-04-03T18:39:10.398Z,26.41
2023-04-03T18:41:38.195Z,26.86
2023-04-03T18:44:06.219Z,27.04
2023-04-03T18:49:05.855Z,28.11
2023-04-03T18:51:33.728Z,28.21
2023-04-03T18:54:03.391Z,28.97
2023-04-03T18:56:31.980Z,28.06
2023-04-03T18:58:59.928Z,28.57
2023-04-03T19:01:27.937Z,28.42
2023-04-03T19:03:55.986Z,28.85
2023-04-03T19:06:24.327Z,29.29
2023-04-03T19:08:52.306Z,29.25
2023-04-03T19:11:20.090Z,29.18
2023-04-03T19:16:20.858Z,29.23
2023-04-03T19:18:49.076Z,29.37
2023-04-03T19:21:16.955Z,29.34
2023-04-03T19:23:44.940Z,29.80
2023-04-03T19:26:12.967Z,30.20
2023-04-03T19:28:41.764Z,29.45
2023-04-03T19:31:09.934Z,30.23
2023-04-03T19:33:37.821Z,29.93
2023-04-03T19:36:05.665Z,29.56
2023-04-03T19:38:33.438Z,29.78
2023-04-03T19:41:01.312Z,29.79
2023-04-03T19:43:29.173Z,29.70
2023-04-03T19:45:57.215Z,30.41
2023-04-03T19:48:24.972Z,29.85
2023-04-03T19:50:52.941Z,30.43
2023-04-03T19:53:22.342Z,29.74
2023-04-03T19:55:50.258Z,30.27
2023-04-03T19:58:18.040Z,30.32
2023-04-03T20:00:45.845Z,29.94
2023-04-03T20:03:13.802Z,30.45
2023-04-03T20:05:41.639Z,30.22
2023-04-03T20:08:09.455Z,30.19
2023-04-03T20:10:40.511Z,30.39
2023-04-03T20:13:10.787Z,30.71
2023-04-03T20:15:40.951Z,30.42
2023-04-03T20:18:08.885Z,30.26
2023-04-03T20:20:41.851Z,30.48
2023-04-03T20:23:10.823Z,30.29
2023-04-03T20:25:50.712Z,30.85
2023-04-03T20:28:25.716Z,31.30
2023-04-03T20:30:55.118Z,30.23
2023-04-03T20:33:23.529Z,30.48
2023-04-03T20:35:51.543Z,30.10
2023-04-03T20:38:19.310Z,30.09
2023-04-03T20:40:47.144Z,31.08
2023-04-03T20:43:15.100Z,30.62
2023-04-03T20:45:42.900Z,31.04
2023-04-03T20:48:11.027Z,29.53
2023-04-03T20:50:39.044Z,30.00
2023-04-03T20:53:07.916Z,30.64
2023-04-03T20:55:35.824Z,30.65
2023-04-03T20:58:03.741Z,30.92
2023-04-03T21:00:32.255Z,30.58
2023-04-03T21:03:01.486Z,30.95
2023-04-03T21:05:30.903Z,31.10
2023-04-03T21:07:58.785Z,30.28
2023-04-03T21:10:28.454Z,31.18
2023-04-03T21:12:56.921Z,30.43
2023-04-03T21:15:24.793Z,30.80
2023-04-03T21:17:52.751Z,30.83
2023-04-03T21:20:20.654Z,30.42
2023-04-03T21:22:49.915Z,30.24
2023-04-03T21:25:17.722Z,30.41
2023-04-03T21:27:45.583Z,30.54
2023-04-03T21:30:13.369Z,30.71
2023-04-03T21:32:41.299Z,30.94
2023-04-03T21:35:09.538Z,31.57
2023-04-03T21:37:37.992Z,30.85
2023-04-03T21:40:05.828Z,30.62
2023-04-03T21:42:33.650Z,30.47
2023-04-03T21:45:01.376Z,30.71
2023-04-03T21:47:29.287Z,30.30
2023-04-03T21:49:57.268Z,31.04
2023-04-03T21:52:25.087Z,31.34
2023-04-03T21:54:53.020Z,31.02
2023-04-03T21:57:22.348Z,31.48
2023-04-03T21:59:50.549Z,30.94
2023-04-03T22:02:18.442Z,31.00
2023-04-03T22:04:47.416Z,31.26
2023-04-03T22:07:15.207Z,31.62
2023-04-03T22:09:43.030Z,31.76
2023-04-03T22:12:11.913Z,31.49
2023-04-03T22:14:40.017Z,31.24
2023-04-03T22:17:08.062Z,31.27
2023-04-03T22:19:35.830Z,31.19
2023-04-03T22:22:04.218Z,31.13
2023-04-03T22:24:32.211Z,31.60
2023-04-03T22:27:00.003Z,30.94
2023-04-03T22:29:28.053Z,31.26
2023-04-03T22:31:56.049Z,31.32
2023-04-03T22:34:24.611Z,31.70
2023-04-03T22:36:53.656Z,31.14
2023-04-03T22:39:22.308Z,31.59
2023-04-03T22:41:50.468Z,31.51
2023-04-03T22:44:18.402Z,31.58
2023-04-03T22:46:46.379Z,31.45
2023-04-03T22:49:14.123Z,31.41
2023-04-03T22:51:42.044Z,31.32
2023-04-03T22:54:10.090Z,31.80
2023-04-03T22:56:38.015Z,31.25
2023-04-03T22:59:05.899Z,31.64
2023-04-03T23:01:33.749Z,31.39
2023-04-03T23:04:01.691Z,31.41
2023-04-03T23:06:29.548Z,31.50
2023-04-03T23:08:57.628Z,31.97
2023-04-03T23:11:25.478Z,31.41
2023-04-03T23:13:53.274Z,31.17
2023-04-03T23:16:21.062Z,31.45
2023-04-03T23:18:50.055Z,31.44
2023-04-03T23:21:17.853Z,32.05
2023-04-03T23:23:45.808Z,31.43
2023-04-03T23:26:13.585Z,31.45
2023-04-03T23:28:41.979Z,31.73
2023-04-03T23:31:10.427Z,31.97
2023-04-03T23:33:38.307Z,31.51
2023-04-03T23:36:06.693Z,31.90
2023-04-03T23:38:34.845Z,31.96
2023-04-03T23:41:02.680Z,31.62
2023-04-03T23:43:31.308Z,31.67
2023-04-03T23:45:59.660Z,32.33
2023-04-03T23:48:27.487Z,31.86
2023-04-03T23:50:55.284Z,31.63
2023-04-03T23:53:23.324Z,32.23
2023-04-03T23:55:51.162Z,32.03
2023-04-03T23:58:18.963Z,31.96
